Time;durP1;ratioP1;P1;durP2;ratioP2;P2;SDS_P1;SDS_P2;PMS_P1;PMS_P2;Temp;Humidity;BMP_temperature;BMP_pressure;BME280_temperature;BME280_humidity;BME280_pressure;Samples;Min_cycle;Max_cycle;Signal;HPM_P1;HPM_P2
2022/10/28 00:02:01;;;;;;;;;;;15.70;99.90;;;;;;5053575;28;19963;-73
2022/10/28 00:04:27;;;;;;;;;;;15.70;99.90;;;;;;5052177;28;19917;-73
2022/10/28 00:06:52;;;;;;;;;;;15.60;99.90;;;;;;5055467;28;19970;-73
2022/10/28 00:09:18;;;;;;;;;;;15.60;99.90;;;;;;5055127;28;20027;-74
2022/10/28 00:11:43;;;;;;;;;;;15.50;99.90;;;;;;5053860;28;19948;-74
2022/10/28 00:14:09;;;;;;;;;;;15.50;99.90;;;;;;5053232;28;19948;-73
2022/10/28 00:16:36;;;;;;;;;;;15.50;99.90;;;;;;5053848;28;19917;-73
2022/10/28 00:19:03;;;;;;;;;;;15.50;99.90;;;;;;5047680;28;20228;-74
2022/10/28 00:21:30;;;;;;;;;;;15.50;99.90;;;;;;5050328;28;19916;-73
2022/10/28 00:23:56;;;;;;;;;;;15.40;99.90;;;;;;5052284;28;19921;-74
2022/10/28 00:26:26;;;;;;;;;;;15.40;99.90;;;;;;5049266;28;20246;-73
2022/10/28 00:28:56;;;;;;;;;;;15.40;99.90;;;;;;5020791;28;19917;-73
2022/10/28 00:31:23;;;;;;;;;;;15.40;99.90;;;;;;5047618;28;20012;-73
2022/10/28 00:33:49;;;;;;;;;;;15.40;99.90;;;;;;5053179;28;19970;-74
2022/10/28 00:36:19;;;;;;;;;;;15.40;99.90;;;;;;5033173;28;19916;-73
2022/10/28 00:38:48;;;;;;;;;;;15.40;99.90;;;;;;5036409;28;19909;-73
2022/10/28 00:41:16;;;;;;;;;;;15.40;99.90;;;;;;5050750;28;19913;-73
2022/10/28 00:43:43;;;;;;;;;;;15.40;99.90;;;;;;5051528;28;19962;-74
2022/10/28 00:46:14;;;;;;;;;;;15.30;99.90;;;;;;5052632;28;19917;-74
2022/10/28 00:48:41;;;;;;;;;;;15.30;99.90;;;;;;5054404;28;19909;-74
2022/10/28 00:51:07;;;;;;;;;;;15.30;99.90;;;;;;5054275;28;19913;-73
2022/10/28 00:53:34;;;;;;;;;;;15.30;99.90;;;;;;5054117;28;19920;-74
2022/10/28 00:56:00;;;;;;;;;;;15.20;99.90;;;;;;5052359;28;19925;-74
2022/10/28 00:58:26;;;;;;;;;;;15.10;99.90;;;;;;5036627;28;20362;-74
2022/10/28 01:00:52;;;;;;;;;;;15.00;99.90;;;;;;5053434;28;19913;-73
2022/10/28 01:03:18;;;;;;;;;;;14.90;99.90;;;;;;5054313;28;19917;-74
2022/10/28 01:05:46;;;;;;;;;;;14.80;99.90;;;;;;5052729;28;19917;-74
2022/10/28 01:08:11;;;;;;;;;;;14.80;99.90;;;;;;5053874;28;19913;-74
2022/10/28 01:10:37;;;;;;;;;;;14.80;99.90;;;;;;5054621;28;19909;-74
2022/10/28 01:13:25;;;;;;;;;;;14.80;99.90;;;;;;5054192;28;19920;-74
2022/10/28 01:16:11;;;;;;;;;;;14.80;99.90;;;;;;5058371;28;19916;-74
2022/10/28 01:18:36;;;;;;;;;;;14.80;99.90;;;;;;5042516;28;19916;-73
2022/10/28 01:21:31;;;;;;;;;;;14.80;99.90;;;;;;5038698;28;20559;-74
2022/10/28 01:23:57;;;;;;;;;;;14.80;99.90;;;;;;5057668;28;19917;-74
2022/10/28 01:26:42;;;;;;;;;;;14.80;99.90;;;;;;5055780;28;20212;-74
2022/10/28 01:29:08;;;;;;;;;;;14.70;99.90;;;;;;5044075;28;19916;-74
2022/10/28 01:31:45;;;;;;;;;;;14.60;99.90;;;;;;5053078;28;19993;-74
2022/10/28 01:34:18;;;;;;;;;;;14.50;99.90;;;;;;5060078;28;19918;-74
2022/10/28 01:36:43;;;;;;;;;;;14.60;99.90;;;;;;5052546;28;19924;-74
2022/10/28 01:39:14;;;;;;;;;;;14.50;99.90;;;;;;5036268;28;19917;-73
2022/10/28 01:41:59;;;;;;;;;;;14.50;99.90;;;;;;5050345;28;19920;-73
2022/10/28 01:44:51;;;;;;;;;;;14.50;99.90;;;;;;5009393;28;19912;-74
2022/10/28 01:47:29;;;;;;;;;;;14.50;99.90;;;;;;5048636;28;19963;-74
2022/10/28 01:50:01;;;;;;;;;;;14.60;99.90;;;;;;5051432;28;19940;-74
2022/10/28 01:52:29;;;;;;;;;;;14.60;99.90;;;;;;5064522;28;19919;-74
2022/10/28 01:55:00;;;;;;;;;;;14.60;99.90;;;;;;5058291;28;19909;-74
2022/10/28 01:57:27;;;;;;;;;;;14.60;99.90;;;;;;5071672;28;20280;-74
2022/10/28 01:59:53;;;;;;;;;;;14.60;99.90;;;;;;5074628;28;19971;-74
2022/10/28 02:02:19;;;;;;;;;;;14.60;99.90;;;;;;5059223;28;20283;-73
2022/10/28 02:04:44;;;;;;;;;;;14.50;99.90;;;;;;5041583;28;19908;-74
2022/10/28 02:07:10;;;;;;;;;;;14.50;99.90;;;;;;5066217;28;19953;-74
2022/10/28 02:09:35;;;;;;;;;;;14.50;99.90;;;;;;5057199;28;19928;-74
2022/10/28 02:12:22;;;;;;;;;;;14.50;99.90;;;;;;5056975;28;20249;-74
2022/10/28 02:15:03;;;;;;;;;;;14.50;99.90;;;;;;5062111;28;19959;-73
2022/10/28 02:17:47;;;;;;;;;;;14.50;99.90;;;;;;5050882;28;20262;-73
2022/10/28 02:20:36;;;;;;;;;;;14.50;99.90;;;;;;5043470;28;19913;-73
2022/10/28 02:23:11;;;;;;;;;;;14.60;99.90;;;;;;5059737;28;20214;-74
2022/10/28 02:25:42;;;;;;;;;;;14.60;99.90;;;;;;5061343;28;19916;-73
2022/10/28 02:28:09;;;;;;;;;;;14.60;99.90;;;;;;5069714;28;19919;-74
2022/10/28 02:30:47;;;;;;;;;;;14.60;99.90;;;;;;5071176;28;19967;-74
2022/10/28 02:33:16;;;;;;;;;;;14.70;99.90;;;;;;5051682;28;19954;-74
2022/10/28 02:36:17;;;;;;;;;;;14.70;99.90;;;;;;5063845;28;20292;-74
2022/10/28 02:38:44;;;;;;;;;;;14.70;99.90;;;;;;4940459;29;19958;-73
2022/10/28 02:41:23;;;;;;;;;;;14.70;99.90;;;;;;4955859;28;19974;-74
2022/10/28 02:43:50;;;;;;;;;;;14.70;99.90;;;;;;4955694;28;19915;-74
2022/10/28 02:46:17;;;;;;;;;;;14.70;99.90;;;;;;4937403;29;19958;-73
2022/10/28 02:48:51;;;;;;;;;;;14.70;99.90;;;;;;4954831;28;19919;-74
2022/10/28 02:51:19;;;;;;;;;;;14.80;99.90;;;;;;4956209;28;19919;-74
2022/10/28 02:53:55;;;;;;;;;;;14.80;99.90;;;;;;4952884;28;19921;-74
2022/10/28 02:56:21;;;;;;;;;;;14.80;99.90;;;;;;4956137;28;19961;-74
2022/10/28 02:58:47;;;;;;;;;;;14.80;99.90;;;;;;4939217;28;19962;-74
2022/10/28 03:01:12;;;;;;;;;;;14.80;99.90;;;;;;4939981;29;20298;-74
2022/10/28 03:03:38;;;;;;;;;;;14.80;99.90;;;;;;4946763;28;19918;-74
2022/10/28 03:06:04;;;;;;;;;;;14.80;99.90;;;;;;4953856;28;19951;-74
2022/10/28 03:08:29;;;;;;;;;;;14.80;99.90;;;;;;4955809;28;20005;-74
2022/10/28 03:10:55;;;;;;;;;;;14.90;99.90;;;;;;4939022;28;19911;-73
2022/10/28 03:13:20;;;;;;;;;;;14.90;99.90;;;;;;5026472;28;19927;-74
2022/10/28 03:15:46;;;;;;;;;;;14.90;99.90;;;;;;5037649;28;20307;-73
2022/10/28 03:18:11;;;;;;;;;;;14.90;99.90;;;;;;5059104;28;19951;-74
2022/10/28 03:20:37;;;;;;;;;;;14.90;99.90;;;;;;5069075;28;19912;-73
2022/10/28 03:23:03;;;;;;;;;;;14.90;99.90;;;;;;5075471;28;19912;-73
2022/10/28 03:25:28;;;;;;;;;;;15.00;99.90;;;;;;5040114;28;20244;-74
2022/10/28 03:27:54;;;;;;;;;;;15.00;99.90;;;;;;5043851;28;20223;-74
2022/10/28 03:30:19;;;;;;;;;;;15.00;99.90;;;;;;5055592;28;20316;-73
2022/10/28 03:32:45;;;;;;;;;;;15.00;99.90;;;;;;5066610;28;20197;-73
2022/10/28 03:35:10;;;;;;;;;;;15.00;99.90;;;;;;5057464;28;19935;-74
2022/10/28 03:37:36;;;;;;;;;;;15.00;99.90;;;;;;5061733;28;19912;-73
2022/10/28 03:40:06;;;;;;;;;;;15.00;99.90;;;;;;5051982;28;19908;-73
2022/10/28 03:42:32;;;;;;;;;;;15.00;99.90;;;;;;5075956;28;19990;-73
2022/10/28 03:44:58;;;;;;;;;;;15.00;99.90;;;;;;5044229;28;20220;-73
2022/10/28 03:47:24;;;;;;;;;;;15.00;99.90;;;;;;5055671;28;19931;-74
2022/10/28 03:49:49;;;;;;;;;;;15.00;99.90;;;;;;5061540;28;19927;-73
2022/10/28 03:52:15;;;;;;;;;;;15.00;99.90;;;;;;5068392;28;19912;-74
2022/10/28 03:54:41;;;;;;;;;;;15.00;99.90;;;;;;5070525;28;19935;-74
2022/10/28 03:57:06;;;;;;;;;;;15.00;99.90;;;;;;5057542;28;20224;-74
2022/10/28 03:59:32;;;;;;;;;;;14.90;99.90;;;;;;5062790;28;20395;-74
2022/10/28 04:01:57;;;;;;;;;;;14.90;99.90;;;;;;5074689;28;20329;-74
2022/10/28 04:04:23;;;;;;;;;;;14.90;99.90;;;;;;5073802;28;20226;-74
2022/10/28 04:06:48;;;;;;;;;;;14.80;99.90;;;;;;5039292;28;19913;-74
2022/10/28 04:09:14;;;;;;;;;;;14.80;99.90;;;;;;5059004;28;20192;-74
2022/10/28 04:11:39;;;;;;;;;;;14.80;99.90;;;;;;5059474;28;19931;-74
2022/10/28 04:14:05;;;;;;;;;;;14.80;99.90;;;;;;5069031;28;19912;-74
2022/10/28 04:16:30;;;;;;;;;;;14.70;99.90;;;;;;5047231;28;19958;-74
2022/10/28 04:18:56;;;;;;;;;;;14.70;99.90;;;;;;5067415;28;19920;-74
2022/10/28 04:21:21;;;;;;;;;;;14.60;99.90;;;;;;5052565;28;20059;-74
2022/10/28 04:23:47;;;;;;;;;;;14.60;99.90;;;;;;5058965;28;19960;-75
2022/10/28 04:26:14;;;;;;;;;;;14.60;99.90;;;;;;5055728;28;19938;-74
2022/10/28 04:28:39;;;;;;;;;;;14.50;99.90;;;;;;5043174;28;19923;-74
2022/10/28 04:31:05;;;;;;;;;;;14.50;99.90;;;;;;5056092;28;20227;-74
2022/10/28 04:33:30;;;;;;;;;;;14.50;99.90;;;;;;5039424;28;19913;-74
2022/10/28 04:35:56;;;;;;;;;;;14.50;99.90;;;;;;5066747;28;20008;-74
2022/10/28 04:38:22;;;;;;;;;;;14.40;99.90;;;;;;5026150;28;19955;-74
2022/10/28 04:40:48;;;;;;;;;;;14.40;99.90;;;;;;5074916;28;19923;-74
2022/10/28 04:43:13;;;;;;;;;;;14.40;99.90;;;;;;5075184;28;20315;-74
2022/10/28 04:45:39;;;;;;;;;;;14.40;99.90;;;;;;5046062;28;20269;-74
2022/10/28 04:48:04;;;;;;;;;;;14.30;99.90;;;;;;5059277;28;19958;-74
2022/10/28 04:50:30;;;;;;;;;;;14.30;99.90;;;;;;5070985;28;19913;-74
2022/10/28 04:52:56;;;;;;;;;;;14.30;99.90;;;;;;5056884;28;20295;-74
2022/10/28 04:55:21;;;;;;;;;;;14.20;99.90;;;;;;5071658;28;20288;-74
2022/10/28 04:57:57;;;;;;;;;;;14.20;99.90;;;;;;5049468;28;19919;-77
2022/10/28 05:00:23;;;;;;;;;;;14.20;99.90;;;;;;5067337;28;19926;-74
2022/10/28 05:02:49;;;;;;;;;;;14.20;99.90;;;;;;5054383;28;19913;-74
2022/10/28 05:05:14;;;;;;;;;;;14.20;99.90;;;;;;5054093;28;19963;-74
2022/10/28 05:07:40;;;;;;;;;;;14.20;99.90;;;;;;5052978;28;20312;-74
2022/10/28 05:10:06;;;;;;;;;;;14.20;99.90;;;;;;5055039;28;19913;-74
2022/10/28 05:12:31;;;;;;;;;;;14.20;99.90;;;;;;5053789;28;20303;-74
2022/10/28 05:14:57;;;;;;;;;;;14.20;99.90;;;;;;5054811;28;19928;-74
2022/10/28 05:17:22;;;;;;;;;;;14.10;99.90;;;;;;5052784;28;19913;-75
2022/10/28 05:19:48;;;;;;;;;;;14.10;99.90;;;;;;5053183;28;19916;-74
2022/10/28 05:22:13;;;;;;;;;;;14.10;99.90;;;;;;5054810;28;19920;-74
2022/10/28 05:24:39;;;;;;;;;;;14.10;99.90;;;;;;5036680;28;19927;-74
2022/10/28 05:27:04;;;;;;;;;;;14.10;99.90;;;;;;5040109;28;20311;-74
2022/10/28 05:29:30;;;;;;;;;;;14.10;99.90;;;;;;5038151;28;20363;-74
2022/10/28 05:31:55;;;;;;;;;;;14.10;99.90;;;;;;5057783;28;19920;-74
2022/10/28 05:34:21;;;;;;;;;;;14.10;99.90;;;;;;5058192;28;20445;-74
2022/10/28 05:36:46;;;;;;;;;;;14.10;99.90;;;;;;5073408;28;19919;-74
2022/10/28 05:39:12;;;;;;;;;;;14.00;99.90;;;;;;5074447;28;19919;-74
2022/10/28 05:41:38;;;;;;;;;;;13.90;99.90;;;;;;5066199;28;19916;-74
2022/10/28 05:44:04;;;;;;;;;;;13.90;99.90;;;;;;5057482;28;19943;-74
2022/10/28 05:46:29;;;;;;;;;;;13.90;99.90;;;;;;5052072;28;20294;-74
2022/10/28 05:48:55;;;;;;;;;;;13.90;99.90;;;;;;5073277;28;19909;-74
2022/10/28 05:51:20;;;;;;;;;;;13.80;99.90;;;;;;5043843;28;19913;-74
2022/10/28 05:53:46;;;;;;;;;;;13.80;99.90;;;;;;5060679;28;19920;-74
2022/10/28 05:56:11;;;;;;;;;;;13.80;99.90;;;;;;5069201;28;19958;-74
2022/10/28 05:58:37;;;;;;;;;;;13.80;99.90;;;;;;5068079;28;19924;-74
2022/10/28 06:01:05;;;;;;;;;;;13.80;99.90;;;;;;5052147;28;19916;-74
2022/10/28 06:03:30;;;;;;;;;;;13.80;99.90;;;;;;5047885;28;19921;-74
2022/10/28 06:05:56;;;;;;;;;;;13.80;99.90;;;;;;5034900;28;20247;-74
2022/10/28 06:08:21;;;;;;;;;;;13.80;99.90;;;;;;5065496;28;19916;-74
2022/10/28 06:10:52;;;;;;;;;;;13.80;99.90;;;;;;5061388;28;19917;-74
2022/10/28 06:13:17;;;;;;;;;;;13.70;99.90;;;;;;5071845;28;19912;-74
2022/10/28 06:15:43;;;;;;;;;;;13.70;99.90;;;;;;5054395;28;19963;-74
2022/10/28 06:18:08;;;;;;;;;;;13.70;99.90;;;;;;5064996;28;20002;-73
2022/10/28 06:20:34;;;;;;;;;;;13.70;99.90;;;;;;5061047;28;19955;-74
2022/10/28 06:22:59;;;;;;;;;;;13.60;99.90;;;;;;5052974;28;19940;-74
2022/10/28 06:25:25;;;;;;;;;;;13.60;99.90;;;;;;5068076;28;19958;-74
2022/10/28 06:27:52;;;;;;;;;;;13.60;99.90;;;;;;5065514;28;19916;-74
2022/10/28 06:30:17;;;;;;;;;;;13.60;99.90;;;;;;5065209;28;19966;-73
2022/10/28 06:32:43;;;;;;;;;;;13.60;99.90;;;;;;5067678;28;19944;-74
2022/10/28 06:35:08;;;;;;;;;;;13.50;99.90;;;;;;5044604;28;20246;-74
2022/10/28 06:37:34;;;;;;;;;;;13.50;99.90;;;;;;5072551;28;19909;-74
2022/10/28 06:40:00;;;;;;;;;;;13.60;99.90;;;;;;5067067;28;19919;-74
2022/10/28 06:42:25;;;;;;;;;;;13.60;99.90;;;;;;5066081;28;19920;-73
2022/10/28 06:44:51;;;;;;;;;;;13.60;99.90;;;;;;5069717;28;19939;-74
2022/10/28 06:47:17;;;;;;;;;;;13.60;99.90;;;;;;5047317;28;20007;-74
2022/10/28 06:49:42;;;;;;;;;;;13.60;99.90;;;;;;5073296;28;19913;-74
2022/10/28 06:52:08;;;;;;;;;;;13.60;99.90;;;;;;5067734;28;19912;-73
2022/10/28 06:54:33;;;;;;;;;;;13.60;99.90;;;;;;5069698;28;19908;-74
2022/10/28 06:56:59;;;;;;;;;;;13.60;99.90;;;;;;5064411;28;19940;-74
2022/10/28 06:59:24;;;;;;;;;;;13.60;99.90;;;;;;5066079;28;20224;-74
2022/10/28 07:01:50;;;;;;;;;;;13.60;99.90;;;;;;5063379;28;19912;-74
2022/10/28 07:04:15;;;;;;;;;;;13.70;99.90;;;;;;5064817;28;19916;-74
2022/10/28 07:06:41;;;;;;;;;;;13.70;99.90;;;;;;5068855;28;20250;-74
2022/10/28 07:09:06;;;;;;;;;;;13.80;99.90;;;;;;5061843;28;20016;-74
2022/10/28 07:11:32;;;;;;;;;;;13.80;99.90;;;;;;5067513;28;19913;-74
2022/10/28 07:13:57;;;;;;;;;;;13.90;99.90;;;;;;5065908;28;19924;-74
2022/10/28 07:16:23;;;;;;;;;;;13.90;99.90;;;;;;5061027;28;19920;-74
2022/10/28 07:18:49;;;;;;;;;;;14.00;99.90;;;;;;5058257;28;19916;-74
2022/10/28 07:21:17;;;;;;;;;;;14.00;99.90;;;;;;5060190;28;19917;-74
2022/10/28 07:23:45;;;;;;;;;;;14.10;99.90;;;;;;5050117;28;19919;-74
2022/10/28 07:26:10;;;;;;;;;;;14.10;99.90;;;;;;5053045;28;20327;-74
2022/10/28 07:28:36;;;;;;;;;;;14.20;99.90;;;;;;5037165;28;19996;-74
2022/10/28 07:31:02;;;;;;;;;;;14.20;99.90;;;;;;5037563;28;19944;-74
2022/10/28 07:33:28;;;;;;;;;;;14.30;99.90;;;;;;5058687;28;19935;-74
2022/10/28 07:35:53;;;;;;;;;;;14.30;99.90;;;;;;5053709;28;20314;-74
2022/10/28 07:38:19;;;;;;;;;;;14.50;99.90;;;;;;5036772;28;19913;-74
2022/10/28 07:40:44;;;;;;;;;;;14.60;99.90;;;;;;5051510;28;19913;-74
2022/10/28 07:43:10;;;;;;;;;;;14.70;99.90;;;;;;5060000;28;19962;-74
2022/10/28 07:45:36;;;;;;;;;;;14.90;99.90;;;;;;5060068;28;19912;-74
2022/10/28 07:48:02;;;;;;;;;;;15.00;99.90;;;;;;5054897;28;19992;-74
2022/10/28 07:50:27;;;;;;;;;;;15.10;99.90;;;;;;5044970;28;19912;-74
2022/10/28 07:52:53;;;;;;;;;;;15.20;99.90;;;;;;5041856;28;19939;-74
2022/10/28 07:55:20;;;;;;;;;;;15.40;99.90;;;;;;5063523;28;19912;-74
2022/10/28 07:57:46;;;;;;;;;;;15.50;99.90;;;;;;5048737;28;20212;-74
2022/10/28 08:00:12;;;;;;;;;;;15.70;99.90;;;;;;5064812;28;20026;-74
2022/10/28 08:02:37;;;;;;;;;;;15.80;99.90;;;;;;5045093;28;19912;-74
2022/10/28 08:05:03;;;;;;;;;;;15.90;99.90;;;;;;5052043;28;20005;-74
2022/10/28 08:07:30;;;;;;;;;;;16.00;99.90;;;;;;5057988;28;19962;-74
2022/10/28 08:09:56;;;;;;;;;;;16.00;99.90;;;;;;5040523;28;20384;-74
2022/10/28 08:12:21;;;;;;;;;;;16.00;99.90;;;;;;5029856;28;19917;-74
2022/10/28 08:14:47;;;;;;;;;;;16.10;99.90;;;;;;5064707;28;20330;-73
2022/10/28 08:17:12;;;;;;;;;;;16.10;99.90;;;;;;5057789;28;19927;-73
2022/10/28 08:19:38;;;;;;;;;;;16.10;99.90;;;;;;5043743;28;19917;-74
2022/10/28 08:22:04;;;;;;;;;;;16.10;99.90;;;;;;5037321;28;20219;-75
2022/10/28 08:24:29;;;;;;;;;;;16.20;99.90;;;;;;5055556;28;19975;-74
2022/10/28 08:26:55;;;;;;;;;;;16.20;99.90;;;;;;5059751;28;20189;-74
2022/10/28 08:29:20;;;;;;;;;;;16.20;99.90;;;;;;5037382;28;19913;-74
2022/10/28 08:31:46;;;;;;;;;;;16.20;99.90;;;;;;5070914;28;19995;-74
2022/10/28 08:34:11;;;;;;;;;;;16.20;99.90;;;;;;5057447;28;19913;-77
2022/10/28 08:36:37;;;;;;;;;;;16.20;99.90;;;;;;5061842;28;20311;-74
2022/10/28 08:39:02;;;;;;;;;;;16.20;99.90;;;;;;5045219;28;19921;-74
2022/10/28 08:41:31;;;;;;;;;;;16.30;99.90;;;;;;5052767;28;20200;-74
2022/10/28 08:43:57;;;;;;;;;;;16.30;99.90;;;;;;5053771;28;19978;-74
2022/10/28 08:46:26;;;;;;;;;;;16.30;99.90;;;;;;5052722;28;20570;-74
2022/10/28 08:48:51;;;;;;;;;;;16.40;99.90;;;;;;5057920;28;19962;-74
2022/10/28 08:51:19;;;;;;;;;;;16.40;99.90;;;;;;5038918;28;19932;-74
2022/10/28 08:53:57;;;;;;;;;;;16.40;99.90;;;;;;5038483;28;20307;-74
2022/10/28 08:56:26;;;;;;;;;;;16.50;99.90;;;;;;5046385;28;20223;-73
2022/10/28 08:58:55;;;;;;;;;;;16.50;99.90;;;;;;5055653;28;20389;-74
2022/10/28 09:01:30;;;;;;;;;;;16.60;99.90;;;;;;5066401;28;19913;-74
2022/10/28 09:03:57;;;;;;;;;;;16.70;99.90;;;;;;5059613;28;20338;-74
2022/10/28 09:06:23;;;;;;;;;;;16.70;99.90;;;;;;5067631;28;19991;-74
2022/10/28 09:08:49;;;;;;;;;;;16.80;99.90;;;;;;5067974;28;20651;-74
2022/10/28 09:11:22;;;;;;;;;;;16.80;99.90;;;;;;5067324;28;19960;-74
2022/10/28 09:13:51;;;;;;;;;;;16.80;99.90;;;;;;5062180;28;20007;-73
2022/10/28 09:16:28;;;;;;;;;;;16.90;99.90;;;;;;5057845;28;20034;-74
2022/10/28 09:19:01;;;;;;;;;;;17.00;99.90;;;;;;5047755;28;20353;-73
2022/10/28 09:21:29;;;;;;;;;;;17.10;99.90;;;;;;5043019;28;20246;-73
2022/10/28 09:23:56;;;;;;;;;;;17.20;99.90;;;;;;5052752;28;19912;-74
2022/10/28 09:26:30;;;;;;;;;;;17.30;99.90;;;;;;5054289;28;19984;-74
2022/10/28 09:29:14;;;;;;;;;;;17.30;99.90;;;;;;5049607;28;19917;-76
2022/10/28 09:31:48;;;;;;;;;;;17.40;99.90;;;;;;5051823;28;19920;-73
2022/10/28 09:34:13;;;;;;;;;;;17.40;99.90;;;;;;5054065;28;19920;-74
2022/10/28 09:36:42;;;;;;;;;;;17.40;99.90;;;;;;5053684;28;19913;-75
2022/10/28 09:39:40;;;;;;;;;;;17.50;99.90;;;;;;5053716;28;20008;-74
2022/10/28 09:42:07;;;;;;;;;;;17.50;99.90;;;;;;5003610;28;20046;-73
2022/10/28 09:44:41;;;;;;;;;;;17.60;99.90;;;;;;5062237;28;20020;-73
2022/10/28 09:47:12;;;;;;;;;;;17.70;99.90;;;;;;5054681;28;19920;-74
2022/10/28 09:49:38;;;;;;;;;;;17.90;99.90;;;;;;5039479;28;19913;-74
2022/10/28 09:52:10;;;;;;;;;;;18.10;99.90;;;;;;5068864;28;19935;-74
2022/10/28 09:54:41;;;;;;;;;;;18.30;99.90;;;;;;5073561;28;20299;-72
2022/10/28 09:57:06;;;;;;;;;;;18.40;99.90;;;;;;5072037;28;19908;-73
2022/10/28 09:59:32;;;;;;;;;;;18.50;99.90;;;;;;5039406;28;20676;-71
2022/10/28 10:01:58;;;;;;;;;;;18.60;99.90;;;;;;5073204;28;19912;-73
2022/10/28 10:04:24;;;;;;;;;;;18.70;99.90;;;;;;5072697;28;19914;-73
2022/10/28 10:06:55;;;;;;;;;;;18.80;99.90;;;;;;5071214;28;19939;-74
2022/10/28 10:09:28;;;;;;;;;;;18.80;99.90;;;;;;5059941;28;19916;-74
2022/10/28 10:11:58;;;;;;;;;;;18.90;99.90;;;;;;5059671;28;19958;-79
2022/10/28 10:14:27;;;;;;;;;;;19.00;99.90;;;;;;5065709;28;20228;-74
2022/10/28 10:16:55;;;;;;;;;;;19.10;99.90;;;;;;5047487;28;20235;-74
2022/10/28 10:19:20;;;;;;;;;;;19.10;99.90;;;;;;5063837;28;19912;-73
2022/10/28 10:21:47;;;;;;;;;;;19.10;99.90;;;;;;5057176;28;19909;-73
2022/10/28 10:24:34;;;;;;;;;;;19.10;99.90;;;;;;5043878;28;19939;-74
2022/10/28 10:27:20;;;;;;;;;;;19.20;99.90;;;;;;5069948;28;19978;-74
2022/10/28 10:29:47;;;;;;;;;;;19.20;99.90;;;;;;5060193;28;19920;-76
2022/10/28 10:32:12;;;;;;;;;;;19.30;99.90;;;;;;5066063;28;19929;-73
2022/10/28 10:34:42;;;;;;;;;;;19.30;99.90;;;;;;5057950;28;20000;-74
2022/10/28 10:37:15;;;;;;;;;;;19.40;99.90;;;;;;5052171;28;19920;-74
2022/10/28 10:39:41;;;;;;;;;;;19.50;99.90;;;;;;5025221;28;19959;-74
2022/10/28 10:42:21;;;;;;;;;;;19.60;99.90;;;;;;5034790;28;19916;-73
2022/10/28 10:44:55;;;;;;;;;;;19.60;99.90;;;;;;5063277;28;20003;-74
2022/10/28 10:47:21;;;;;;;;;;;19.70;99.90;;;;;;5073217;28;19912;-73
2022/10/28 10:49:48;;;;;;;;;;;19.70;99.90;;;;;;5048800;28;20016;-74
2022/10/28 10:52:19;;;;;;;;;;;19.70;99.90;;;;;;5067155;28;19912;-74
2022/10/28 10:55:05;;;;;;;;;;;19.70;99.90;;;;;;5053289;28;20297;-74
2022/10/28 10:57:32;;;;;;;;;;;19.60;99.90;;;;;;5067810;28;19909;-74
2022/10/28 10:59:57;;;;;;;;;;;19.60;99.90;;;;;;5070266;28;19954;-73
2022/10/28 11:02:30;;;;;;;;;;;19.60;99.90;;;;;;5067556;28;20315;-74
2022/10/28 11:05:01;;;;;;;;;;;19.60;99.90;;;;;;5067341;28;20357;-73
2022/10/28 11:07:27;;;;;;;;;;;19.60;99.90;;;;;;5032853;28;19927;-73
2022/10/28 11:09:53;;;;;;;;;;;19.70;99.90;;;;;;5054244;28;19917;-73
2022/10/28 11:12:30;;;;;;;;;;;19.80;99.90;;;;;;5054229;28;19920;-73
2022/10/28 11:15:14;;;;;;;;;;;19.80;99.90;;;;;;5050473;28;19917;-73
2022/10/28 11:17:40;;;;;;;;;;;19.80;99.90;;;;;;5050342;28;19952;-74
2022/10/28 11:20:22;;;;;;;;;;;19.80;99.90;;;;;;5050874;28;20010;-74
2022/10/28 11:23:02;;;;;;;;;;;19.80;99.90;;;;;;5037040;28;19917;-74
2022/10/28 11:25:48;;;;;;;;;;;19.80;99.90;;;;;;5031477;28;19940;-74
2022/10/28 11:28:19;;;;;;;;;;;19.80;99.90;;;;;;5055944;28;19920;-73
2022/10/28 11:30:52;;;;;;;;;;;19.90;99.90;;;;;;5044570;28;19917;-74
2022/10/28 11:33:20;;;;;;;;;;;19.90;99.90;;;;;;5052333;28;20366;-74
2022/10/28 11:35:54;;;;;;;;;;;19.80;99.90;;;;;;5056414;28;20086;-73
2022/10/28 11:38:27;;;;;;;;;;;19.80;99.90;;;;;;5040296;28;20262;-74
2022/10/28 11:40:57;;;;;;;;;;;19.80;99.90;;;;;;5045233;28;20339;-74
2022/10/28 11:43:41;;;;;;;;;;;19.80;99.90;;;;;;5060545;28;19913;-74
2022/10/28 11:46:22;;;;;;;;;;;19.80;99.90;;;;;;5036912;28;19924;-73
2022/10/28 11:49:06;;;;;;;;;;;19.80;99.90;;;;;;5055257;28;19924;-74
2022/10/28 11:51:58;;;;;;;;;;;19.90;99.90;;;;;;5054609;28;19916;-74
2022/10/28 11:54:29;;;;;;;;;;;19.90;99.90;;;;;;5004360;28;19986;-74
2022/10/28 11:57:00;;;;;;;;;;;19.90;99.90;;;;;;5053492;28;19916;-73
2022/10/28 11:59:29;;;;;;;;;;;19.90;99.90;;;;;;5006556;28;19930;-74
2022/10/28 12:02:03;;;;;;;;;;;19.90;99.90;;;;;;5007690;28;19916;-73
2022/10/28 12:04:52;;;;;;;;;;;19.90;99.90;;;;;;4997246;28;19910;-73
2022/10/28 12:07:31;;;;;;;;;;;19.90;99.90;;;;;;4960007;28;20375;-73
2022/10/28 12:09:56;;;;;;;;;;;19.90;99.90;;;;;;5010706;28;19965;-74
2022/10/28 12:12:27;;;;;;;;;;;20.00;99.90;;;;;;5009489;28;20549;-77
2022/10/28 12:14:56;;;;;;;;;;;20.00;99.90;;;;;;5007448;28;19949;-74
2022/10/28 12:17:43;;;;;;;;;;;19.90;99.90;;;;;;5008775;28;20351;-74
2022/10/28 12:20:19;;;;;;;;;;;19.90;99.90;;;;;;4994329;28;20533;-74
2022/10/28 12:22:54;;;;;;;;;;;19.90;99.90;;;;;;5002734;28;20266;-74
2022/10/28 12:25:24;;;;;;;;;;;19.90;99.90;;;;;;5014944;28;19916;-74
2022/10/28 12:27:51;;;;;;;;;;;19.90;99.90;;;;;;5013563;28;19924;-74
2022/10/28 12:30:20;;;;;;;;;;;19.90;99.90;;;;;;5013838;28;20305;-74
2022/10/28 12:32:47;;;;;;;;;;;19.90;99.90;;;;;;5014951;28;19910;-73
2022/10/28 12:35:22;;;;;;;;;;;19.90;99.90;;;;;;5011947;28;19914;-73
2022/10/28 12:37:59;;;;;;;;;;;19.80;99.90;;;;;;5010775;28;19921;-73
2022/10/28 12:40:27;;;;;;;;;;;19.70;99.90;;;;;;5011304;28;19913;-73
2022/10/28 12:43:00;;;;;;;;;;;19.60;99.90;;;;;;5010501;28;19921;-74
2022/10/28 12:45:27;;;;;;;;;;;19.60;99.90;;;;;;5026425;28;19918;-74
2022/10/28 12:47:56;;;;;;;;;;;19.60;99.90;;;;;;5012752;28;19924;-74
2022/10/28 12:50:27;;;;;;;;;;;19.60;99.90;;;;;;5013370;28;19979;-74
2022/10/28 12:53:02;;;;;;;;;;;19.60;99.90;;;;;;5011064;28;19967;-74
2022/10/28 12:55:43;;;;;;;;;;;19.70;99.90;;;;;;5010819;28;19972;-74
2022/10/28 12:58:27;;;;;;;;;;;19.70;99.90;;;;;;5021040;28;19944;-74
2022/10/28 13:00:54;;;;;;;;;;;19.70;99.90;;;;;;5033537;28;19913;-73
2022/10/28 13:03:19;;;;;;;;;;;19.70;99.90;;;;;;5049770;28;19920;-74
2022/10/28 13:06:01;;;;;;;;;;;19.70;99.90;;;;;;5042780;28;20315;-77
2022/10/28 13:08:27;;;;;;;;;;;19.70;99.90;;;;;;5054083;28;20232;-74
2022/10/28 13:11:11;;;;;;;;;;;19.70;99.90;;;;;;5051195;28;19917;-74
2022/10/28 13:13:45;;;;;;;;;;;19.70;99.90;;;;;;5038720;28;19932;-74
2022/10/28 13:16:17;;;;;;;;;;;19.80;99.90;;;;;;5060704;28;20323;-74
2022/10/28 13:18:42;;;;;;;;;;;19.90;99.90;;;;;;5067014;28;19970;-74
2022/10/28 13:21:27;;;;;;;;;;;19.80;99.90;;;;;;5042865;28;19944;-74
2022/10/28 13:23:52;;;;;;;;;;;19.80;99.90;;;;;;5044229;28;19967;-73
2022/10/28 13:26:29;;;;;;;;;;;19.70;99.90;;;;;;5038859;28;20308;-74
2022/10/28 13:28:56;;;;;;;;;;;19.70;99.90;;;;;;5044116;28;20278;-74
2022/10/28 13:31:22;;;;;;;;;;;19.70;99.90;;;;;;5054625;28;19912;-74
2022/10/28 13:33:51;;;;;;;;;;;19.70;99.90;;;;;;5054259;28;19913;-74
2022/10/28 13:36:20;;;;;;;;;;;19.70;99.90;;;;;;5037381;28;19963;-77
2022/10/28 13:38:53;;;;;;;;;;;19.70;99.90;;;;;;5054234;28;19967;-74
2022/10/28 13:41:48;;;;;;;;;;;19.70;99.90;;;;;;5028050;28;19921;-74
2022/10/28 13:44:22;;;;;;;;;;;19.70;99.90;;;;;;5027236;28;19920;-74
2022/10/28 13:47:06;;;;;;;;;;;19.70;99.90;;;;;;5027550;28;20271;-74
2022/10/28 13:49:36;;;;;;;;;;;19.80;99.90;;;;;;5032771;28;20357;-74
2022/10/28 13:52:12;;;;;;;;;;;19.80;99.90;;;;;;5052014;28;20365;-74
2022/10/28 13:54:43;;;;;;;;;;;19.80;99.90;;;;;;5062127;28;19922;-73
2022/10/28 13:57:27;;;;;;;;;;;19.80;99.90;;;;;;5056812;28;19915;-74
2022/10/28 13:59:56;;;;;;;;;;;19.90;99.90;;;;;;5064837;28;19971;-74
2022/10/28 14:02:23;;;;;;;;;;;19.80;99.90;;;;;;5055614;28;19943;-73
2022/10/28 14:04:57;;;;;;;;;;;19.90;99.90;;;;;;5073475;28;19912;-73
2022/10/28 14:07:32;;;;;;;;;;;19.90;99.90;;;;;;5055348;28;20472;-77
2022/10/28 14:10:30;;;;;;;;;;;19.90;99.90;;;;;;5035265;28;20300;-74
2022/10/28 14:12:57;;;;;;;;;;;20.00;99.90;;;;;;4962797;28;19925;-74
2022/10/28 14:15:36;;;;;;;;;;;20.10;99.90;;;;;;4955528;28;19924;-74
2022/10/28 14:18:04;;;;;;;;;;;20.10;99.90;;;;;;4967602;28;19950;-74
2022/10/28 14:20:32;;;;;;;;;;;20.00;99.90;;;;;;4974070;28;19933;-75
2022/10/28 14:22:58;;;;;;;;;;;20.00;99.90;;;;;;4970535;28;20330;-74
2022/10/28 14:25:49;;;;;;;;;;;19.90;99.90;;;;;;4956579;28;19994;-74
2022/10/28 14:28:41;;;;;;;;;;;19.90;99.90;;;;;;4960812;28;19938;-74
2022/10/28 14:31:10;;;;;;;;;;;19.80;99.90;;;;;;4956860;28;20605;-75